Time;durP1;ratioP1;P1;durP2;ratioP2;P2;SDS_P1;SDS_P2;PMS_P1;PMS_P2;Temp;Humidity;BMP_temperature;BMP_pressure;BME280_temperature;BME280_humidity;BME280_pressure;Samples;Min_cycle;Max_cycle;Signal;HPM_P1;HPM_P2
2022/10/01 00:02:09;;;;;;;11.37;9.80;;;7.40;99.90;;;;;;5008049;28;20239;-53
2022/10/01 00:04:38;;;;;;;12.97;10.97;;;7.40;99.90;;;;;;5011647;28;21009;-54
2022/10/01 00:07:09;;;;;;;18.47;14.77;;;7.40;99.90;;;;;;5012357;28;20220;-54
2022/10/01 00:09:38;;;;;;;15.33;13.67;;;7.40;99.90;;;;;;5012595;28;20718;-53
2022/10/01 00:12:06;;;;;;;12.00;8.97;;;7.40;99.90;;;;;;5011569;28;20320;-53
2022/10/01 00:14:34;;;;;;;12.30;10.73;;;7.50;99.90;;;;;;5011669;28;20305;-53
2022/10/01 00:17:03;;;;;;;11.77;10.47;;;7.50;99.90;;;;;;5011821;28;20296;-53
2022/10/01 00:19:31;;;;;;;14.27;11.30;;;7.50;99.90;;;;;;5009788;28;20289;-53
2022/10/01 00:21:59;;;;;;;19.53;15.93;;;7.50;99.90;;;;;;5001541;28;20231;-53
2022/10/01 00:24:28;;;;;;;13.57;9.83;;;7.60;99.90;;;;;;5011141;28;20221;-53
2022/10/01 00:26:56;;;;;;;13.90;12.40;;;7.60;99.90;;;;;;5012345;28;20209;-52
2022/10/01 00:29:24;;;;;;;13.67;12.23;;;7.60;99.90;;;;;;5011683;28;20239;-53
2022/10/01 00:31:52;;;;;;;15.60;12.70;;;7.60;99.90;;;;;;5011388;28;20312;-53
2022/10/01 00:34:22;;;;;;;24.40;18.77;;;7.60;99.90;;;;;;5011650;28;20742;-53
2022/10/01 00:36:50;;;;;;;16.80;12.87;;;7.60;99.90;;;;;;5011840;28;20203;-53
2022/10/01 00:39:18;;;;;;;18.67;13.83;;;7.60;99.90;;;;;;5011924;28;20882;-53
2022/10/01 00:41:46;;;;;;;25.13;17.67;;;7.60;99.90;;;;;;5011160;28;20281;-53
2022/10/01 00:44:35;;;;;;;14.10;11.33;;;7.60;99.90;;;;;;5006875;28;20215;-53
2022/10/01 00:47:09;;;;;;;16.57;12.67;;;7.50;99.90;;;;;;5008317;28;20210;-52
2022/10/01 00:49:40;;;;;;;15.83;14.13;;;7.50;99.90;;;;;;5004225;28;20795;-53
2022/10/01 00:52:14;;;;;;;13.67;11.23;;;7.50;99.90;;;;;;5006244;28;20332;-53
2022/10/01 00:54:46;;;;;;;13.60;12.10;;;7.50;99.90;;;;;;5011292;28;20305;-53
2022/10/01 00:57:16;;;;;;;16.23;12.33;;;7.50;99.90;;;;;;5011581;28;20301;-53
2022/10/01 00:59:46;;;;;;;17.70;13.90;;;7.50;99.90;;;;;;5011126;28;20301;-53
2022/10/01 01:02:14;;;;;;;14.00;12.30;;;7.50;99.90;;;;;;5010755;28;20229;-53
2022/10/01 01:04:43;;;;;;;17.30;12.27;;;7.60;99.90;;;;;;5011011;28;20241;-53
2022/10/01 01:07:12;;;;;;;16.80;12.13;;;7.60;99.90;;;;;;5010512;28;20212;-54
2022/10/01 01:09:44;;;;;;;17.33;14.37;;;7.60;99.90;;;;;;5009987;28;20743;-54
2022/10/01 01:12:24;;;;;;;15.10;12.90;;;7.60;99.90;;;;;;5010711;28;20324;-53
2022/10/01 01:15:03;;;;;;;13.27;11.87;;;7.60;99.90;;;;;;5008585;28;20300;-54
2022/10/01 01:17:38;;;;;;;16.13;12.80;;;7.70;99.90;;;;;;5009293;28;20220;-53
2022/10/01 01:20:28;;;;;;;14.93;11.17;;;7.70;99.90;;;;;;5011007;28;20573;-53
2022/10/01 01:23:06;;;;;;;20.83;14.90;;;7.70;99.90;;;;;;5006546;28;20226;-53
2022/10/01 01:25:46;;;;;;;14.43;11.43;;;7.80;99.90;;;;;;5009040;28;20209;-53
2022/10/01 01:28:22;;;;;;;14.70;11.60;;;7.80;99.90;;;;;;5010859;28;20637;-53
2022/10/01 01:30:55;;;;;;;20.90;18.83;;;7.90;99.90;;;;;;5003106;28;20234;-53
2022/10/01 01:33:25;;;;;;;22.33;19.60;;;7.90;99.90;;;;;;5010510;28;20596;-53
2022/10/01 01:35:59;;;;;;;15.77;11.57;;;7.90;99.90;;;;;;5010164;28;20254;-53
2022/10/01 01:38:31;;;;;;;43.30;28.93;;;8.00;99.90;;;;;;5011062;28;20645;-53
2022/10/01 01:41:01;;;;;;;34.53;29.57;;;8.00;99.90;;;;;;5010251;28;20296;-52
2022/10/01 01:43:34;;;;;;;16.20;12.47;;;8.10;99.90;;;;;;5010477;28;20305;-53
2022/10/01 01:46:05;;;;;;;32.10;23.67;;;8.10;99.90;;;;;;5010623;28;20795;-54
2022/10/01 01:48:35;;;;;;;15.73;12.40;;;8.10;99.90;;;;;;5010125;28;20251;-54
2022/10/01 01:51:11;;;;;;;26.53;16.07;;;8.20;99.90;;;;;;5010779;28;20325;-54
2022/10/01 01:53:39;;;;;;;22.67;16.63;;;8.20;99.90;;;;;;5009880;28;20651;-53
2022/10/01 01:56:08;;;;;;;22.80;16.63;;;8.20;99.90;;;;;;5010881;28;20330;-54
2022/10/01 01:58:39;;;;;;;18.97;14.40;;;8.20;99.90;;;;;;5009817;28;20680;-53
2022/10/01 02:01:07;;;;;;;18.93;17.00;;;8.20;99.90;;;;;;5010157;28;20313;-53
2022/10/01 02:03:36;;;;;;;13.23;11.83;;;8.20;99.90;;;;;;5009993;28;20201;-54
2022/10/01 02:06:16;;;;;;;23.03;20.07;;;8.20;99.90;;;;;;5009504;28;20652;-53
2022/10/01 02:08:51;;;;;;;28.63;24.03;;;8.30;99.90;;;;;;5009812;28;20614;-53
2022/10/01 02:11:25;;;;;;;30.83;20.13;;;8.30;99.90;;;;;;5009872;28;20238;-53
2022/10/01 02:14:04;;;;;;;34.10;21.63;;;8.30;99.90;;;;;;5009447;28;20242;-53
2022/10/01 02:16:42;;;;;;;17.60;13.53;;;8.20;99.90;;;;;;5010163;28;20298;-53
2022/10/01 02:19:18;;;;;;;29.10;17.57;;;8.20;99.90;;;;;;5010330;28;20221;-53
2022/10/01 02:21:55;;;;;;;22.70;16.67;;;8.20;99.90;;;;;;4995624;28;20313;-52
2022/10/01 02:24:31;;;;;;;38.30;33.80;;;8.20;99.90;;;;;;5009591;28;20779;-53
2022/10/01 02:27:01;;;;;;;26.57;19.67;;;8.20;99.90;;;;;;5009686;28;20219;-54
2022/10/01 02:29:30;;;;;;;18.70;14.07;;;8.20;99.90;;;;;;5004351;28;20603;-53
2022/10/01 02:32:00;;;;;;;34.87;24.83;;;8.20;99.90;;;;;;5003980;28;20322;-53
2022/10/01 02:34:30;;;;;;;25.77;17.80;;;8.20;99.90;;;;;;5003578;28;20242;-53
2022/10/01 02:37:00;;;;;;;15.53;12.40;;;8.20;99.90;;;;;;5010214;28;20290;-54
2022/10/01 02:39:32;;;;;;;25.33;22.77;;;8.20;99.90;;;;;;5009130;28;20294;-54
2022/10/01 02:42:01;;;;;;;14.77;12.70;;;8.30;99.90;;;;;;5008985;28;20223;-53
2022/10/01 02:44:36;;;;;;;17.20;13.30;;;8.30;99.90;;;;;;5009055;28;20298;-54
2022/10/01 02:47:07;;;;;;;26.97;19.53;;;8.30;99.90;;;;;;5008299;28;20229;-53
2022/10/01 02:49:37;;;;;;;24.73;20.30;;;8.30;99.90;;;;;;5009482;28;20717;-53
2022/10/01 02:52:12;;;;;;;144.40;59.07;;;8.30;99.90;;;;;;5008104;28;20227;-53
2022/10/01 02:54:45;;;;;;;21.30;16.83;;;8.30;99.90;;;;;;5009563;28;20298;-54
2022/10/01 02:57:23;;;;;;;14.27;11.70;;;8.40;99.90;;;;;;5009277;28;20697;-53
2022/10/01 02:59:55;;;;;;;236.70;101.50;;;8.40;99.90;;;;;;5009884;28;20194;-53
2022/10/01 03:02:26;;;;;;;81.50;42.77;;;8.40;99.90;;;;;;5009472;28;20326;-54
2022/10/01 03:04:55;;;;;;;32.97;22.70;;;8.50;99.90;;;;;;5009532;28;20245;-53
2022/10/01 03:07:23;;;;;;;88.93;42.90;;;8.50;99.90;;;;;;5008434;28;20307;-53
2022/10/01 03:09:51;;;;;;;60.00;30.63;;;8.60;99.90;;;;;;5009422;28;20237;-53
2022/10/01 03:12:19;;;;;;;51.07;25.57;;;8.60;99.90;;;;;;5009306;28;20254;-54
2022/10/01 03:14:47;;;;;;;215.63;70.20;;;8.60;99.90;;;;;;5009501;28;20313;-53
2022/10/01 03:17:17;;;;;;;26.43;21.37;;;8.60;99.90;;;;;;5009665;28;20211;-54
2022/10/01 03:19:45;;;;;;;30.30;21.90;;;8.70;99.90;;;;;;5003257;28;20321;-54
2022/10/01 03:22:17;;;;;;;26.57;17.00;;;8.60;99.90;;;;;;5010260;28;20329;-53
2022/10/01 03:24:45;;;;;;;368.77;145.63;;;8.70;99.90;;;;;;5009586;28;20209;-52
2022/10/01 03:27:12;;;;;;;43.33;29.13;;;8.70;99.90;;;;;;5009570;28;20405;-54
2022/10/01 03:29:40;;;;;;;17.63;12.77;;;8.70;99.90;;;;;;5001234;28;20236;-54
2022/10/01 03:32:09;;;;;;;168.37;70.87;;;8.70;99.90;;;;;;5008151;28;20317;-54
2022/10/01 03:34:38;;;;;;;54.67;32.07;;;8.70;99.90;;;;;;5008421;28;20694;-54
2022/10/01 03:37:06;;;;;;;53.23;32.17;;;8.70;99.90;;;;;;5009070;28;20310;-54
2022/10/01 03:39:35;;;;;;;99.03;59.47;;;8.70;99.90;;;;;;5011276;28;20771;-54
2022/10/01 03:42:04;;;;;;;60.20;35.80;;;8.70;99.90;;;;;;5012103;28;20321;-54
2022/10/01 03:44:32;;;;;;;34.27;24.23;;;8.70;99.90;;;;;;5013056;28;20319;-54
2022/10/01 03:47:00;;;;;;;97.83;48.93;;;8.70;99.90;;;;;;5012456;28;20751;-53
2022/10/01 03:49:28;;;;;;;44.93;34.10;;;8.70;99.90;;;;;;5012735;28;20334;-53
2022/10/01 03:51:58;;;;;;;89.03;47.03;;;8.70;99.90;;;;;;5012566;28;20371;-53
2022/10/01 03:54:26;;;;;;;40.50;24.57;;;8.70;99.90;;;;;;5011206;28;20264;-53
2022/10/01 03:56:54;;;;;;;66.97;35.93;;;8.80;99.90;;;;;;5011848;28;20203;-53
2022/10/01 03:59:22;;;;;;;205.90;92.70;;;8.70;99.90;;;;;;5006666;28;20211;-53
2022/10/01 04:01:50;;;;;;;62.07;45.77;;;8.70;99.90;;;;;;5011969;28;20678;-53
2022/10/01 04:04:18;;;;;;;63.00;39.30;;;8.80;99.90;;;;;;5012772;28;20214;-54
2022/10/01 04:06:46;;;;;;;257.87;102.03;;;8.80;99.90;;;;;;5012656;28;20319;-52
2022/10/01 04:09:15;;;;;;;327.60;125.03;;;8.80;99.90;;;;;;5011014;28;20301;-53
2022/10/01 04:11:44;;;;;;;96.10;53.13;;;8.80;99.90;;;;;;5009848;28;20320;-54
2022/10/01 04:14:12;;;;;;;77.40;43.67;;;8.80;99.90;;;;;;5010529;28;20310;-53
2022/10/01 04:16:40;;;;;;;274.27;119.47;;;8.80;99.90;;;;;;5012705;28;20217;-54
2022/10/01 04:19:08;;;;;;;95.07;52.03;;;8.80;99.90;;;;;;5012384;28;20245;-53
2022/10/01 04:21:37;;;;;;;194.30;77.20;;;8.80;99.90;;;;;;5012226;28;20724;-53
2022/10/01 04:24:06;;;;;;;154.77;73.30;;;8.80;99.90;;;;;;5011498;28;20302;-54
2022/10/01 04:26:35;;;;;;;186.50;78.83;;;8.80;99.90;;;;;;5011565;28;20591;-53
2022/10/01 04:29:03;;;;;;;316.20;133.23;;;8.80;99.90;;;;;;4999032;28;20217;-53
2022/10/01 04:31:33;;;;;;;116.73;54.63;;;8.80;99.90;;;;;;5012062;28;20240;-54
2022/10/01 04:34:03;;;;;;;267.47;127.07;;;8.80;99.90;;;;;;5011344;28;20210;-53
2022/10/01 04:36:31;;;;;;;374.23;155.60;;;8.80;99.90;;;;;;5011186;28;20234;-53
2022/10/01 04:38:59;;;;;;;306.13;128.37;;;8.80;99.90;;;;;;5011314;28;20290;-54
2022/10/01 04:41:30;;;;;;;121.17;49.03;;;8.80;99.90;;;;;;5011493;28;20238;-53
2022/10/01 04:44:00;;;;;;;81.23;42.00;;;8.80;99.90;;;;;;5011160;28;20222;-53
2022/10/01 04:46:29;;;;;;;120.90;69.87;;;8.80;99.90;;;;;;5012123;28;20293;-53
2022/10/01 04:48:57;;;;;;;99.73;50.60;;;8.80;99.90;;;;;;5005512;28;20313;-54
2022/10/01 04:51:25;;;;;;;46.50;33.23;;;8.80;99.90;;;;;;5012139;28;20403;-53
2022/10/01 04:53:54;;;;;;;156.77;66.80;;;8.90;99.90;;;;;;5010890;28;20366;-53
2022/10/01 04:56:22;;;;;;;336.27;159.53;;;8.90;99.90;;;;;;5004646;28;20214;-53
2022/10/01 04:58:50;;;;;;;153.57;60.93;;;8.90;99.90;;;;;;5012147;28;20208;-54
2022/10/01 05:01:20;;;;;;;99.73;53.07;;;9.00;99.90;;;;;;5011671;28;20310;-54
2022/10/01 05:03:48;;;;;;;60.80;37.60;;;8.90;99.90;;;;;;5011297;28;20738;-53
2022/10/01 05:06:16;;;;;;;149.07;71.97;;;9.00;99.90;;;;;;5010773;28;20302;-54
2022/10/01 05:08:44;;;;;;;286.80;111.03;;;9.00;99.90;;;;;;5011272;28;20207;-53
2022/10/01 05:11:12;;;;;;;68.47;49.03;;;8.90;99.90;;;;;;5010555;28;20358;-53
2022/10/01 05:13:40;;;;;;;91.87;46.10;;;8.90;99.90;;;;;;5010499;28;20199;-54
2022/10/01 05:16:08;;;;;;;134.43;59.50;;;8.90;99.90;;;;;;5011180;28;20575;-52
2022/10/01 05:18:39;;;;;;;506.07;200.80;;;9.00;99.90;;;;;;5008292;28;20290;-53
2022/10/01 05:21:08;;;;;;;60.57;35.73;;;9.00;99.90;;;;;;5009229;28;20305;-54
2022/10/01 05:23:37;;;;;;;71.30;42.90;;;8.90;99.90;;;;;;5005466;28;20238;-53
2022/10/01 05:26:06;;;;;;;711.23;260.20;;;8.90;99.90;;;;;;5010179;28;20242;-53
2022/10/01 05:28:35;;;;;;;98.33;45.53;;;8.90;99.90;;;;;;5003434;28;20206;-55
2022/10/01 05:31:04;;;;;;;217.33;90.03;;;8.90;99.90;;;;;;5007434;28;20222;-54
2022/10/01 05:33:33;;;;;;;170.03;67.77;;;8.90;99.90;;;;;;4997555;28;20215;-54
2022/10/01 05:36:03;;;;;;;434.40;186.60;;;9.00;99.90;;;;;;5005118;28;20321;-53
2022/10/01 05:38:35;;;;;;;226.23;94.33;;;8.90;99.90;;;;;;5008342;28;20206;-54
2022/10/01 05:41:03;;;;;;;256.77;116.17;;;9.00;99.90;;;;;;5007754;28;20207;-53
2022/10/01 05:43:31;;;;;;;123.87;66.37;;;9.00;99.90;;;;;;5007551;28;20317;-52
2022/10/01 05:46:01;;;;;;;217.73;91.90;;;9.00;99.90;;;;;;5008654;28;20213;-53
2022/10/01 05:48:35;;;;;;;536.33;200.80;;;9.00;99.90;;;;;;5006433;28;20261;-53
2022/10/01 05:51:07;;;;;;;137.90;62.90;;;9.00;99.90;;;;;;5003088;28;20258;-53
2022/10/01 05:53:36;;;;;;;182.23;67.50;;;9.00;99.90;;;;;;5007719;28;20202;-53
2022/10/01 05:56:05;;;;;;;93.17;44.97;;;9.10;99.90;;;;;;5010055;28;20211;-53
2022/10/01 05:58:33;;;;;;;36.67;30.77;;;9.10;99.90;;;;;;5002160;28;20310;-53
2022/10/01 06:01:02;;;;;;;206.47;103.73;;;9.20;99.90;;;;;;5006172;28;20286;-53
2022/10/01 06:03:31;;;;;;;318.67;144.07;;;9.20;99.90;;;;;;5006719;28;20744;-53
2022/10/01 06:05:59;;;;;;;126.83;58.47;;;9.20;99.90;;;;;;5008475;28;20671;-55
2022/10/01 06:08:29;;;;;;;211.50;91.47;;;9.20;99.90;;;;;;5008510;28;20199;-54
2022/10/01 06:11:00;;;;;;;540.97;193.77;;;9.20;99.90;;;;;;5007780;28;20230;-53
2022/10/01 06:13:29;;;;;;;535.30;208.53;;;9.20;99.90;;;;;;5009052;28;20210;-53
2022/10/01 06:15:57;;;;;;;300.53;136.07;;;9.20;99.90;;;;;;5009829;28;20290;-54
2022/10/01 06:18:26;;;;;;;340.23;157.20;;;9.30;99.90;;;;;;5008109;28;20306;-53
2022/10/01 06:20:54;;;;;;;138.90;71.37;;;9.30;99.90;;;;;;5009092;28;20213;-53
2022/10/01 06:23:22;;;;;;;472.97;179.97;;;9.30;99.90;;;;;;5009018;28;20234;-53
2022/10/01 06:25:51;;;;;;;678.27;255.23;;;9.30;99.90;;;;;;5009757;28;20262;-53
2022/10/01 06:28:20;;;;;;;80.30;54.97;;;9.20;99.90;;;;;;5008575;28;20298;-53
2022/10/01 06:30:48;;;;;;;295.80;114.37;;;9.30;99.90;;;;;;5009300;28;20206;-53
2022/10/01 06:33:17;;;;;;;74.13;51.10;;;9.30;99.90;;;;;;5008914;28;20265;-53
2022/10/01 06:35:47;;;;;;;50.13;31.70;;;9.30;99.90;;;;;;5005890;28;20235;-53
2022/10/01 06:38:16;;;;;;;119.80;74.53;;;9.40;99.90;;;;;;5009253;28;20697;-53
2022/10/01 06:40:44;;;;;;;149.50;64.50;;;9.40;99.90;;;;;;5009350;28;20686;-53
2022/10/01 06:43:13;;;;;;;104.40;50.33;;;9.40;99.90;;;;;;5008532;28;20293;-54
2022/10/01 06:45:42;;;;;;;29.43;26.30;;;9.50;99.90;;;;;;5009444;28;20214;-53
2022/10/01 06:48:13;;;;;;;69.90;60.30;;;9.40;99.90;;;;;;5009198;28;20687;-53
2022/10/01 06:50:43;;;;;;;34.57;22.93;;;9.50;99.90;;;;;;5008398;28;20306;-53
2022/10/01 06:53:11;;;;;;;62.60;37.70;;;9.50;99.90;;;;;;5002342;28;20231;-52
2022/10/01 06:55:40;;;;;;;28.90;21.50;;;9.60;99.90;;;;;;5009111;28;20219;-53
2022/10/01 06:58:12;;;;;;;117.00;58.30;;;9.60;99.90;;;;;;5009173;28;20301;-54
2022/10/01 07:00:43;;;;;;;547.17;217.90;;;9.60;99.90;;;;;;5009211;28;20298;-53
2022/10/01 07:03:14;;;;;;;86.37;58.97;;;9.60;99.90;;;;;;5004294;28;20302;-54
2022/10/01 07:05:43;;;;;;;125.40;53.30;;;9.60;99.90;;;;;;5008840;28;20231;-53
2022/10/01 07:08:11;;;;;;;206.30;95.77;;;9.50;99.90;;;;;;5010466;28;20207;-53
2022/10/01 07:10:40;;;;;;;129.57;72.27;;;9.60;99.90;;;;;;5009004;28;20684;-53
2022/10/01 07:13:09;;;;;;;68.10;49.00;;;9.60;99.90;;;;;;5009554;28;21422;-53
2022/10/01 07:15:38;;;;;;;101.27;67.63;;;9.60;99.90;;;;;;5012487;28;20207;-53
2022/10/01 07:18:08;;;;;;;175.67;108.77;;;9.60;99.90;;;;;;5010097;28;20209;-54
2022/10/01 07:20:39;;;;;;;41.47;35.27;;;9.60;99.90;;;;;;5005215;28;20297;-54
2022/10/01 07:23:10;;;;;;;80.67;44.23;;;9.60;99.90;;;;;;5010201;28;20223;-54
2022/10/01 07:25:39;;;;;;;104.83;60.37;;;9.70;99.90;;;;;;5012572;28;20301;-54
2022/10/01 07:28:14;;;;;;;68.20;36.30;;;9.70;99.90;;;;;;5011381;28;20234;-54
2022/10/01 07:30:46;;;;;;;53.60;32.33;;;9.70;99.90;;;;;;5011056;28;20202;-53
2022/10/01 07:33:18;;;;;;;95.37;61.57;;;9.70;99.90;;;;;;5009107;28;20688;-54
2022/10/01 07:35:47;;;;;;;135.03;58.33;;;9.70;99.90;;;;;;5011405;28;20218;-53
2022/10/01 07:38:15;;;;;;;130.53;72.37;;;9.70;99.90;;;;;;5011503;28;20217;-54
2022/10/01 07:40:43;;;;;;;49.97;28.87;;;9.70;99.90;;;;;;5010721;28;20221;-54
2022/10/01 07:43:13;;;;;;;64.70;35.50;;;9.70;99.90;;;;;;5011027;28;20258;-53
2022/10/01 07:45:41;;;;;;;295.67;126.93;;;9.70;99.90;;;;;;5011795;28;20214;-53
2022/10/01 07:48:09;;;;;;;45.90;28.43;;;9.80;99.90;;;;;;5003136;28;20237;-53
2022/10/01 07:50:39;;;;;;;61.40;37.03;;;9.70;99.90;;;;;;5009688;28;20684;-53
2022/10/01 07:53:07;;;;;;;85.40;39.00;;;9.80;99.90;;;;;;5010213;28;20356;-53
2022/10/01 07:55:35;;;;;;;257.07;114.90;;;9.80;99.90;;;;;;5010675;28;20658;-54
2022/10/01 07:58:04;;;;;;;248.73;113.43;;;9.70;99.90;;;;;;5010651;28;20218;-53
2022/10/01 08:00:33;;;;;;;93.20;59.77;;;9.70;99.90;;;;;;5011229;28;20207;-53
2022/10/01 08:03:01;;;;;;;107.43;47.73;;;9.80;99.90;;;;;;5009923;28;20722;-53
2022/10/01 08:05:31;;;;;;;136.83;84.70;;;9.70;99.90;;;;;;5010027;28;20219;-53
2022/10/01 08:08:02;;;;;;;53.23;24.37;;;9.70;99.90;;;;;;5010139;28;20221;-53
2022/10/01 08:10:35;;;;;;;17.97;15.00;;;9.80;99.90;;;;;;5011158;28;20235;-53
2022/10/01 08:13:13;;;;;;;216.40;101.53;;;9.80;99.90;;;;;;5008526;28;20318;-53
2022/10/01 08:15:42;;;;;;;389.40;187.57;;;9.90;99.90;;;;;;5008238;28;21001;-53
2022/10/01 08:18:11;;;;;;;142.27;79.07;;;9.90;99.90;;;;;;5009757;28;20317;-53
2022/10/01 08:20:39;;;;;;;316.63;131.60;;;9.90;99.90;;;;;;5006146;28;20932;-53
2022/10/01 08:23:10;;;;;;;33.57;20.57;;;9.90;99.90;;;;;;5004638;28;20302;-53
2022/10/01 08:25:39;;;;;;;24.77;13.03;;;10.00;99.90;;;;;;5011166;28;20242;-54
2022/10/01 08:28:08;;;;;;;37.63;26.27;;;10.00;99.90;;;;;;5003644;28;20214;-53
2022/10/01 08:30:38;;;;;;;64.37;38.73;;;10.00;99.90;;;;;;5011550;28;20212;-54
2022/10/01 08:33:07;;;;;;;61.33;36.17;;;10.00;99.90;;;;;;5009204;28;20325;-54
2022/10/01 08:35:38;;;;;;;13.53;12.17;;;10.00;99.90;;;;;;5011567;28;20302;-53
2022/10/01 08:38:08;;;;;;;102.97;56.17;;;10.00;99.90;;;;;;5011381;28;20303;-53
2022/10/01 08:40:46;;;;;;;61.50;38.17;;;10.00;99.90;;;;;;5008428;28;20215;-52
2022/10/01 08:43:30;;;;;;;55.57;40.40;;;10.00;99.90;;;;;;5010662;28;20963;-54
2022/10/01 08:46:02;;;;;;;87.30;46.30;;;10.10;99.90;;;;;;4999876;28;20265;-53
2022/10/01 08:48:43;;;;;;;32.33;17.87;;;10.10;99.90;;;;;;5008132;28;20238;-53
2022/10/01 08:51:19;;;;;;;21.73;15.87;;;10.20;99.90;;;;;;5009695;28;20773;-54
2022/10/01 08:53:52;;;;;;;114.77;57.30;;;10.20;99.90;;;;;;5008662;28;20219;-52
2022/10/01 08:56:25;;;;;;;39.07;27.57;;;10.20;99.90;;;;;;5011835;28;20299;-53
2022/10/01 08:58:57;;;;;;;47.40;27.07;;;10.30;99.90;;;;;;5010864;28;20218;-54
2022/10/01 09:01:26;;;;;;;55.27;44.23;;;10.30;99.90;;;;;;5009182;28;20227;-54
2022/10/01 09:03:54;;;;;;;201.53;75.07;;;10.30;99.90;;;;;;5009850;28;21067;-53
2022/10/01 09:06:25;;;;;;;435.33;206.17;;;10.40;99.90;;;;;;5001891;28;20213;-54
2022/10/01 09:09:18;;;;;;;76.97;31.83;;;10.40;99.90;;;;;;5010168;28;20737;-54
2022/10/01 09:11:59;;;;;;;32.13;24.67;;;10.50;99.90;;;;;;5006548;28;20254;-53
2022/10/01 09:14:54;;;;;;;899.50;400.70;;;10.50;99.90;;;;;;5006764;28;20459;-53
2022/10/01 09:17:37;;;;;;;285.67;160.20;;;10.70;99.90;;;;;;4979044;28;20215;-53
2022/10/01 09:20:17;;;;;;;149.33;77.60;;;10.60;99.90;;;;;;5009544;28;20757;-53
2022/10/01 09:22:52;;;;;;;125.80;54.37;;;10.60;99.90;;;;;;5009588;28;20699;-53
2022/10/01 09:25:23;;;;;;;120.43;58.30;;;10.60;99.90;;;;;;5010274;28;20735;-53
2022/10/01 09:28:00;;;;;;;225.47;115.47;;;10.60;99.90;;;;;;5006107;28;20294;-54
2022/10/01 09:30:31;;;;;;;57.50;32.77;;;10.70;99.90;;;;;;5009907;28;20202;-54
2022/10/01 09:33:04;;;;;;;100.07;73.30;;;10.70;99.90;;;;;;5008170;28;20317;-52
2022/10/01 09:35:42;;;;;;;199.67;97.97;;;10.70;99.90;;;;;;5007988;28;20286;-53
2022/10/01 09:38:18;;;;;;;32.90;18.00;;;10.70;99.90;;;;;;5009470;28;20305;-53
2022/10/01 09:40:53;;;;;;;46.27;37.10;;;10.70;99.90;;;;;;5006161;28;20210;-54
2022/10/01 09:43:25;;;;;;;74.07;54.67;;;10.70;99.90;;;;;;5006596;28;20290;-53
2022/10/01 09:45:53;;;;;;;16.27;9.57;;;10.70;99.90;;;;;;5007066;28;20203;-52
2022/10/01 09:48:30;;;;;;;36.33;22.97;;;10.80;99.90;;;;;;5010912;28;20778;-53
2022/10/01 09:51:04;;;;;;;23.27;20.17;;;10.80;99.90;;;;;;5006756;28;20308;-53
2022/10/01 09:53:36;;;;;;;117.00;84.10;;;10.90;99.90;;;;;;5009245;28;20225;-54
2022/10/01 09:56:11;;;;;;;119.10;73.30;;;10.90;99.90;;;;;;5009451;28;20735;-53
2022/10/01 09:58:46;;;;;;;151.03;92.67;;;10.90;99.90;;;;;;5009446;28;20709;-53
2022/10/01 10:01:22;;;;;;;76.00;63.43;;;10.90;99.90;;;;;;5008773;28;20234;-54
2022/10/01 10:03:55;;;;;;;29.07;14.70;;;10.90;99.90;;;;;;5009025;28;20668;-54
2022/10/01 10:06:27;;;;;;;366.67;187.37;;;10.90;99.90;;;;;;5007855;28;20238;-53
2022/10/01 10:08:58;;;;;;;379.43;164.67;;;10.80;99.90;;;;;;5008602;28;20644;-53
2022/10/01 10:11:28;;;;;;;44.20;28.57;;;10.80;99.90;;;;;;5006146;28;20301;-53
2022/10/01 10:14:00;;;;;;;63.73;34.53;;;10.90;99.90;;;;;;5004639;28;20219;-54
2022/10/01 10:16:29;;;;;;;40.93;32.20;;;10.90;99.90;;;;;;5009516;28;20293;-53
2022/10/01 10:19:01;;;;;;;57.30;29.27;;;10.90;99.90;;;;;;5005670;28;20203;-53
2022/10/01 10:21:32;;;;;;;140.40;86.20;;;10.90;99.90;;;;;;5005369;28;20754;-53
2022/10/01 10:24:02;;;;;;;139.07;68.80;;;10.90;99.90;;;;;;5004382;28;20257;-53
2022/10/01 10:26:32;;;;;;;172.43;88.47;;;10.90;99.90;;;;;;5008100;28;20627;-53
2022/10/01 10:29:04;;;;;;;30.00;18.67;;;10.90;99.90;;;;;;5007824;28;20297;-51
2022/10/01 10:31:40;;;;;;;18.47;8.27;;;11.00;99.90;;;;;;5007791;28;20306;-51
2022/10/01 10:34:15;;;;;;;132.30;84.57;;;11.10;99.90;;;;;;5007746;28;20234;-51
2022/10/01 10:36:45;;;;;;;37.40;20.57;;;11.00;99.90;;;;;;5006935;28;20576;-51
2022/10/01 10:39:19;;;;;;;62.90;32.67;;;11.10;99.90;;;;;;5007162;28;20298;-51
2022/10/01 10:41:48;;;;;;;17.80;15.97;;;11.10;99.90;;;;;;5004753;28;20654;-51
2022/10/01 10:44:20;;;;;;;65.67;37.50;;;11.30;99.90;;;;;;5008209;28;20210;-50
2022/10/01 10:46:49;;;;;;;40.67;36.57;;;11.30;99.90;;;;;;5008718;28;20613;-54
2022/10/01 10:49:24;;;;;;;46.53;40.80;;;11.30;99.90;;;;;;5004746;28;20289;-53
2022/10/01 10:51:54;;;;;;;140.30;82.37;;;11.30;99.90;;;;;;5005080;28;20261;-53
2022/10/01 10:54:25;;;;;;;49.23;29.23;;;11.30;99.90;;;;;;5007929;28;20362;-54
2022/10/01 10:56:58;;;;;;;52.70;40.93;;;11.40;99.90;;;;;;5013667;28;20206;-53
2022/10/01 10:59:30;;;;;;;52.53;24.50;;;11.50;99.90;;;;;;5012129;28;20242;-53
2022/10/01 11:01:59;;;;;;;165.83;96.67;;;11.50;99.90;;;;;;5009009;28;20309;-53
2022/10/01 11:04:37;;;;;;;43.53;22.90;;;11.50;99.90;;;;;;5000105;28;20203;-53
2022/10/01 11:07:05;;;;;;;13.87;9.33;;;11.60;99.90;;;;;;5006314;28;20289;-53
2022/10/01 11:09:53;;;;;;;50.00;36.00;;;11.50;99.90;;;;;;5009226;28;20217;-53
2022/10/01 11:12:37;;;;;;;153.03;95.33;;;11.60;99.90;;;;;;5004446;28;20747;-53
2022/10/01 11:15:23;;;;;;;40.03;24.40;;;11.60;99.90;;;;;;5006858;28;20302;-53
2022/10/01 11:18:17;;;;;;;101.33;82.30;;;11.60;99.90;;;;;;5008855;28;20264;-53
2022/10/01 11:20:53;;;;;;;150.03;74.73;;;11.60;99.90;;;;;;4999285;28;20203;-53
2022/10/01 11:23:44;;;;;;;38.27;27.67;;;11.60;99.90;;;;;;5006560;28;20699;-53
2022/10/01 11:26:19;;;;;;;64.47;43.97;;;11.60;99.90;;;;;;5007768;28;20211;-52
2022/10/01 11:29:01;;;;;;;90.47;57.73;;;11.60;99.90;;;;;;5006758;28;20297;-53
2022/10/01 11:31:38;;;;;;;114.40;69.17;;;11.70;99.90;;;;;;5007216;28;20341;-53
2022/10/01 11:34:31;;;;;;;68.27;47.20;;;11.70;99.90;;;;;;5005956;28;20233;-54
2022/10/01 11:37:09;;;;;;;48.13;28.07;;;11.70;99.90;;;;;;5007245;28;20223;-53
2022/10/01 11:39:42;;;;;;;81.90;52.53;;;11.80;99.90;;;;;;5007511;28;20299;-53
2022/10/01 11:42:15;;;;;;;190.97;84.53;;;11.90;99.90;;;;;;5005286;28;20764;-53
2022/10/01 11:44:49;;;;;;;106.03;42.83;;;12.00;99.90;;;;;;5006631;28;20283;-53
2022/10/01 11:47:24;;;;;;;77.70;43.87;;;12.10;99.90;;;;;;5007929;28;20246;-54
2022/10/01 11:49:56;;;;;;;208.63;118.13;;;12.20;99.90;;;;;;5008272;28;20285;-53
2022/10/01 11:52:33;;;;;;;231.30;139.80;;;12.30;99.90;;;;;;5006529;28;20750;-53
2022/10/01 12:01:02;;;;;;;38.77;14.20;;;12.60;99.90;;;;;;5009212;28;20265;-53
2022/10/01 12:03:42;;;;;;;113.57;61.40;;;12.80;99.90;;;;;;5008781;28;20218;-53
2022/10/01 12:06:13;;;;;;;253.90;127.60;;;13.00;99.90;;;;;;5005773;28;20217;-53
2022/10/01 12:08:50;;;;;;;254.70;153.67;;;13.10;99.90;;;;;;5006595;28;20211;-53
2022/10/01 12:11:23;;;;;;;102.53;48.30;;;13.10;99.90;;;;;;5009415;28;20615;-53
2022/10/01 12:13:58;;;;;;;279.97;189.10;;;13.10;99.90;;;;;;5007684;28;20910;-53
2022/10/01 12:16:36;;;;;;;152.57;69.40;;;13.10;99.90;;;;;;5010522;28;20250;-54
2022/10/01 12:19:16;;;;;;;214.13;89.40;;;13.00;99.90;;;;;;5011538;28;20203;-53
2022/10/01 12:21:48;;;;;;;185.83;126.50;;;13.00;99.90;;;;;;5010553;28;20314;-53
2022/10/01 12:24:20;;;;;;;110.77;54.57;;;13.10;99.90;;;;;;5011214;28;20213;-53
2022/10/01 12:27:14;;;;;;;169.93;95.43;;;13.20;99.90;;;;;;5011229;28;20203;-53
2022/10/01 12:29:52;;;;;;;135.50;82.33;;;13.30;99.90;;;;;;5010153;28;20310;-53
2022/10/01 12:32:30;;;;;;;233.87;116.47;;;13.40;99.90;;;;;;5010248;28;20691;-53
2022/10/01 12:35:12;;;;;;;129.97;70.90;;;13.50;99.90;;;;;;5011019;28;20614;-53
2022/10/01 12:37:57;;;;;;;179.50;99.20;;;13.60;99.90;;;;;;5010870;28;20478;-53
2022/10/01 12:40:32;;;;;;;40.63;20.10;;;13.70;99.90;;;;;;5009881;28;20290;-53
2022/10/01 12:43:46;;;;;;;228.90;113.10;;;13.70;99.90;;;;;;5008276;28;20313;-53
2022/10/01 12:46:26;;;;;;;219.47;142.83;;;13.80;99.90;;;;;;4936783;29;20871;-53
2022/10/01 12:49:04;;;;;;;382.93;230.63;;;14.10;99.90;;;;;;4941520;29;20734;-53
2022/10/01 12:51:40;;;;;;;390.87;154.83;;;14.50;99.90;;;;;;4983339;28;20223;-53
2022/10/01 12:54:30;;;;;;;174.17;74.87;;;14.50;99.90;;;;;;4984468;28;20574;-51
2022/10/01 12:57:09;;;;;;;412.00;195.10;;;14.60;99.90;;;;;;5007319;28;20226;-51
2022/10/01 12:59:56;;;;;;;307.87;128.93;;;14.80;99.90;;;;;;5005741;28;20294;-50